OAKB/KBL METAR and TAF weather

Enter ICAO airport designator
Station Type Date Time Source
OAKB METAR 2020/05/29 19:50 UTC NOAA

OAKB 291950Z VRB02KT CAVOK 18/02 Q1015 RMK A2999 BLU BLU


Station Type Date Time Source
OAKB Decoded METAR 2020/05/29 19:50 UTC NOAA

Kabul Airport, Afghanistan (OAKB) 34-38N 069-12E
May 29, 2020 - 03:50 PM EDT / 2020.05.29 1950 UTC
Wind: Variable at 2 MPH (2 KT):0
Visibility: greater than 7 mile(s):0
Temperature: 64 F (18 C)
Dew Point: 35 F (2 C)
Relative Humidity: 34%
Pressure (altimeter): 29.97 in. Hg (1015 hPa)
ob: OAKB 291950Z VRB02KT CAVOK 18/02 Q1015 RMK A2999 BLU BLU
cycle: 20

Station Type Date Time Source
OAKB TAF 2020/05/29 18:05 UTC NOAA

TAF OAKB 291705Z 2918/3018 01010G20KT CAVOK
BECMG 2918/2920 32006KT
BECMG 3007/3009 35012G22KT 9999 FEW080
TEMPO 2911/2916 5000 -BLDU 06020G35KT
BECMG 3016/3018 01010G20KT CAVOK

Example: see airport list